Metar Aviation Weather Data EGNJ

7°C Temp
2°C Dewpoint
% Humidity
Temperature
19 KM/H
12 MPH
10 KTS
250°
West South
West

Wind Speed
Clear
Conditions
Pressure 1029.91 (hPa) - 30.41 (in)
Visibility 6.2 (mi) - 10 (km)

Current Conditions
EGNJ
Metar :EGNJ 240850Z 25010KT 9999 NSC 07/02 Q1030
Sun 24th March 08:50 am

  Metar Aviation API Data Provided by https://www.checkwx.com/ PHP scripts by weather34.com ©2019